sensor_id;sensor_type;location;lat;lon;timestamp;P1;durP1;ratioP1;P2;durP2;ratioP2
19848;SDS011;10085;51.120;6.956;2023-05-07T00:03:21;4.65;;;2.60;;
19848;SDS011;10085;51.120;6.956;2023-05-07T00:08:23;3.50;;;2.50;;
19848;SDS011;10085;51.120;6.956;2023-05-07T00:13:28;4.80;;;2.60;;
19848;SDS011;10085;51.120;6.956;2023-05-07T00:18:31;3.50;;;2.30;;
19848;SDS011;10085;51.120;6.956;2023-05-07T00:23:34;4.55;;;2.40;;
19848;SDS011;10085;51.120;6.956;2023-05-07T00:28:38;4.15;;;2.42;;
19848;SDS011;10085;51.120;6.956;2023-05-07T00:33:42;3.95;;;2.15;;
19848;SDS011;10085;51.120;6.956;2023-05-07T00:38:44;5.47;;;2.50;;
19848;SDS011;10085;51.120;6.956;2023-05-07T00:43:48;7.20;;;2.92;;
19848;SDS011;10085;51.120;6.956;2023-05-07T00:48:52;3.65;;;2.50;;
19848;SDS011;10085;51.120;6.956;2023-05-07T00:53:55;5.07;;;2.55;;
19848;SDS011;10085;51.120;6.956;2023-05-07T00:58:59;3.38;;;2.50;;
19848;SDS011;10085;51.120;6.956;2023-05-07T01:04:03;5.50;;;2.60;;
19848;SDS011;10085;51.120;6.956;2023-05-07T01:09:06;4.93;;;2.15;;
19848;SDS011;10085;51.120;6.956;2023-05-07T01:14:11;5.47;;;2.50;;
19848;SDS011;10085;51.120;6.956;2023-05-07T01:19:14;4.82;;;2.30;;
19848;SDS011;10085;51.120;6.956;2023-05-07T01:24:20;3.22;;;2.20;;
19848;SDS011;10085;51.120;6.956;2023-05-07T01:29:23;5.55;;;2.30;;
19848;SDS011;10085;51.120;6.956;2023-05-07T01:34:27;3.90;;;2.40;;
19848;SDS011;10085;51.120;6.956;2023-05-07T01:39:31;3.75;;;2.50;;
19848;SDS011;10085;51.120;6.956;2023-05-07T01:44:34;4.18;;;2.30;;
19848;SDS011;10085;51.120;6.956;2023-05-07T01:49:37;5.85;;;2.33;;
19848;SDS011;10085;51.120;6.956;2023-05-07T01:54:41;3.55;;;2.25;;
19848;SDS011;10085;51.120;6.956;2023-05-07T01:59:44;4.47;;;2.40;;
19848;SDS011;10085;51.120;6.956;2023-05-07T02:04:47;9.32;;;2.50;;
19848;SDS011;10085;51.120;6.956;2023-05-07T02:09:52;3.00;;;2.38;;
19848;SDS011;10085;51.120;6.956;2023-05-07T02:14:56;4.35;;;2.20;;
19848;SDS011;10085;51.120;6.956;2023-05-07T02:19:59;4.03;;;2.50;;
19848;SDS011;10085;51.120;6.956;2023-05-07T02:25:04;3.80;;;2.33;;
19848;SDS011;10085;51.120;6.956;2023-05-07T02:30:07;3.40;;;2.20;;
19848;SDS011;10085;51.120;6.956;2023-05-07T02:35:10;2.83;;;2.38;;
19848;SDS011;10085;51.120;6.956;2023-05-07T02:40:15;3.22;;;2.20;;
19848;SDS011;10085;51.120;6.956;2023-05-07T02:45:17;2.70;;;1.95;;
19848;SDS011;10085;51.120;6.956;2023-05-07T02:50:22;3.80;;;2.20;;
19848;SDS011;10085;51.120;6.956;2023-05-07T02:55:26;4.50;;;2.67;;
19848;SDS011;10085;51.120;6.956;2023-05-07T03:00:29;3.58;;;2.42;;
19848;SDS011;10085;51.120;6.956;2023-05-07T03:05:54;3.05;;;2.13;;
19848;SDS011;10085;51.120;6.956;2023-05-07T03:10:58;5.55;;;2.60;;
19848;SDS011;10085;51.120;6.956;2023-05-07T03:16:01;4.35;;;2.22;;
19848;SDS011;10085;51.120;6.956;2023-05-07T03:21:04;3.60;;;2.20;;
19848;SDS011;10085;51.120;6.956;2023-05-07T03:26:08;2.47;;;2.10;;
19848;SDS011;10085;51.120;6.956;2023-05-07T03:31:11;2.97;;;2.08;;
19848;SDS011;10085;51.120;6.956;2023-05-07T03:36:14;2.97;;;2.10;;
19848;SDS011;10085;51.120;6.956;2023-05-07T03:41:18;3.35;;;2.20;;
19848;SDS011;10085;51.120;6.956;2023-05-07T03:46:21;2.88;;;2.08;;
19848;SDS011;10085;51.120;6.956;2023-05-07T03:51:24;2.30;;;2.00;;
19848;SDS011;10085;51.120;6.956;2023-05-07T03:56:29;2.22;;;1.88;;
19848;SDS011;10085;51.120;6.956;2023-05-07T04:01:33;4.22;;;2.30;;
19848;SDS011;10085;51.120;6.956;2023-05-07T04:06:36;3.85;;;2.10;;
19848;SDS011;10085;51.120;6.956;2023-05-07T04:11:41;4.72;;;2.20;;
19848;SDS011;10085;51.120;6.956;2023-05-07T04:16:45;3.47;;;1.92;;
19848;SDS011;10085;51.120;6.956;2023-05-07T04:21:48;5.88;;;2.40;;
19848;SDS011;10085;51.120;6.956;2023-05-07T04:26:52;4.95;;;2.50;;
19848;SDS011;10085;51.120;6.956;2023-05-07T04:31:56;3.50;;;2.38;;
19848;SDS011;10085;51.120;6.956;2023-05-07T04:37:01;4.22;;;2.35;;
19848;SDS011;10085;51.120;6.956;2023-05-07T04:42:06;3.13;;;2.20;;
19848;SDS011;10085;51.120;6.956;2023-05-07T04:47:10;3.10;;;2.30;;
19848;SDS011;10085;51.120;6.956;2023-05-07T04:52:13;3.58;;;2.10;;
19848;SDS011;10085;51.120;6.956;2023-05-07T04:57:18;6.50;;;2.25;;
19848;SDS011;10085;51.120;6.956;2023-05-07T05:02:21;2.63;;;2.05;;
19848;SDS011;10085;51.120;6.956;2023-05-07T05:07:24;3.33;;;2.33;;
19848;SDS011;10085;51.120;6.956;2023-05-07T05:12:29;2.78;;;2.22;;
19848;SDS011;10085;51.120;6.956;2023-05-07T05:17:33;3.55;;;2.08;;
19848;SDS011;10085;51.120;6.956;2023-05-07T05:22:37;4.13;;;2.13;;
19848;SDS011;10085;51.120;6.956;2023-05-07T05:27:42;3.92;;;2.50;;
19848;SDS011;10085;51.120;6.956;2023-05-07T05:32:46;2.83;;;2.13;;
19848;SDS011;10085;51.120;6.956;2023-05-07T05:37:48;2.65;;;2.05;;
19848;SDS011;10085;51.120;6.956;2023-05-07T05:42:54;3.25;;;2.20;;
19848;SDS011;10085;51.120;6.956;2023-05-07T05:47:57;3.95;;;2.00;;
19848;SDS011;10085;51.120;6.956;2023-05-07T05:53:00;2.90;;;2.28;;
19848;SDS011;10085;51.120;6.956;2023-05-07T05:58:05;4.85;;;2.28;;
19848;SDS011;10085;51.120;6.956;2023-05-07T06:03:11;5.53;;;2.10;;
19848;SDS011;10085;51.120;6.956;2023-05-07T06:08:16;2.97;;;2.00;;
19848;SDS011;10085;51.120;6.956;2023-05-07T06:13:22;4.30;;;1.90;;
19848;SDS011;10085;51.120;6.956;2023-05-07T06:18:27;2.40;;;2.08;;
19848;SDS011;10085;51.120;6.956;2023-05-07T06:23:31;3.15;;;2.20;;
19848;SDS011;10085;51.120;6.956;2023-05-07T06:28:37;3.33;;;2.10;;
19848;SDS011;10085;51.120;6.956;2023-05-07T06:33:44;6.28;;;2.13;;
19848;SDS011;10085;51.120;6.956;2023-05-07T06:38:48;5.95;;;2.10;;
19848;SDS011;10085;51.120;6.956;2023-05-07T06:43:52;3.83;;;2.15;;
19848;SDS011;10085;51.120;6.956;2023-05-07T06:49:13;4.35;;;2.35;;
19848;SDS011;10085;51.120;6.956;2023-05-07T06:54:17;2.40;;;1.95;;
19848;SDS011;10085;51.120;6.956;2023-05-07T06:59:23;3.60;;;1.80;;
19848;SDS011;10085;51.120;6.956;2023-05-07T07:04:26;2.50;;;1.90;;
19848;SDS011;10085;51.120;6.956;2023-05-07T07:09:36;2.70;;;2.20;;
19848;SDS011;10085;51.120;6.956;2023-05-07T07:14:42;3.72;;;1.95;;
19848;SDS011;10085;51.120;6.956;2023-05-07T07:19:46;4.47;;;2.00;;
19848;SDS011;10085;51.120;6.956;2023-05-07T08:08:58;3.58;;;1.60;;
19848;SDS011;10085;51.120;6.956;2023-05-07T08:14:02;2.38;;;1.75;;
19848;SDS011;10085;51.120;6.956;2023-05-07T08:19:04;4.68;;;1.90;;
19848;SDS011;10085;51.120;6.956;2023-05-07T08:24:09;4.82;;;1.75;;
19848;SDS011;10085;51.120;6.956;2023-05-07T08:29:12;2.08;;;1.63;;
19848;SDS011;10085;51.120;6.956;2023-05-07T08:34:15;3.45;;;1.80;;
19848;SDS011;10085;51.120;6.956;2023-05-07T08:39:22;2.08;;;1.70;;
19848;SDS011;10085;51.120;6.956;2023-05-07T08:44:27;2.10;;;1.70;;
19848;SDS011;10085;51.120;6.956;2023-05-07T08:49:32;4.72;;;1.73;;
19848;SDS011;10085;51.120;6.956;2023-05-07T08:54:38;4.13;;;2.08;;
19848;SDS011;10085;51.120;6.956;2023-05-07T08:59:45;2.30;;;1.90;;
19848;SDS011;10085;51.120;6.956;2023-05-07T09:04:48;2.58;;;1.80;;
19848;SDS011;10085;51.120;6.956;2023-05-07T09:09:53;2.38;;;1.77;;
19848;SDS011;10085;51.120;6.956;2023-05-07T09:14:59;2.28;;;1.67;;
19848;SDS011;10085;51.120;6.956;2023-05-07T09:20:03;2.05;;;1.50;;
19848;SDS011;10085;51.120;6.956;2023-05-07T09:25:11;1.77;;;1.50;;
19848;SDS011;10085;51.120;6.956;2023-05-07T09:30:16;2.10;;;1.55;;
19848;SDS011;10085;51.120;6.956;2023-05-07T09:35:19;2.17;;;1.70;;
19848;SDS011;10085;51.120;6.956;2023-05-07T09:40:29;2.72;;;1.70;;
19848;SDS011;10085;51.120;6.956;2023-05-07T09:45:38;3.75;;;1.70;;
19848;SDS011;10085;51.120;6.956;2023-05-07T09:50:44;2.17;;;1.65;;
19848;SDS011;10085;51.120;6.956;2023-05-07T09:55:55;1.67;;;1.40;;
19848;SDS011;10085;51.120;6.956;2023-05-07T10:00:59;2.65;;;1.70;;
19848;SDS011;10085;51.120;6.956;2023-05-07T10:06:03;3.20;;;1.67;;
19848;SDS011;10085;51.120;6.956;2023-05-07T10:11:08;2.35;;;1.50;;
19848;SDS011;10085;51.120;6.956;2023-05-07T10:16:12;2.30;;;1.58;;
19848;SDS011;10085;51.120;6.956;2023-05-07T10:21:21;1.90;;;1.70;;
19848;SDS011;10085;51.120;6.956;2023-05-07T10:26:32;2.20;;;1.30;;
19848;SDS011;10085;51.120;6.956;2023-05-07T10:31:41;1.60;;;1.50;;
19848;SDS011;10085;51.120;6.956;2023-05-07T10:36:52;4.85;;;1.70;;
19848;SDS011;10085;51.120;6.956;2023-05-07T10:41:58;3.03;;;1.70;;
19848;SDS011;10085;51.120;6.956;2023-05-07T10:47:11;3.53;;;1.70;;
19848;SDS011;10085;51.120;6.956;2023-05-07T10:52:18;2.15;;;1.80;;
19848;SDS011;10085;51.120;6.956;2023-05-07T10:57:33;1.80;;;1.58;;
19848;SDS011;10085;51.120;6.956;2023-05-07T11:03:12;1.80;;;1.60;;
19848;SDS011;10085;51.120;6.956;2023-05-07T11:08:55;2.13;;;1.70;;
19848;SDS011;10085;51.120;6.956;2023-05-07T11:14:07;2.42;;;1.70;;
19848;SDS011;10085;51.120;6.956;2023-05-07T11:19:17;4.18;;;1.70;;
19848;SDS011;10085;51.120;6.956;2023-05-07T11:25:14;3.15;;;1.95;;
19848;SDS011;10085;51.120;6.956;2023-05-07T11:30:25;2.83;;;1.95;;
19848;SDS011;10085;51.120;6.956;2023-05-07T11:35:28;2.92;;;1.83;;
19848;SDS011;10085;51.120;6.956;2023-05-07T11:40:31;3.13;;;1.70;;
19848;SDS011;10085;51.120;6.956;2023-05-07T11:45:35;2.35;;;1.80;;
19848;SDS011;10085;51.120;6.956;2023-05-07T11:50:49;3.25;;;1.83;;
19848;SDS011;10085;51.120;6.956;2023-05-07T11:55:53;2.50;;;1.85;;
19848;SDS011;10085;51.120;6.956;2023-05-07T12:00:57;3.47;;;1.90;;
19848;SDS011;10085;51.120;6.956;2023-05-07T12:06:00;3.08;;;1.80;;
19848;SDS011;10085;51.120;6.956;2023-05-07T12:11:03;2.35;;;1.90;;
19848;SDS011;10085;51.120;6.956;2023-05-07T12:16:07;2.72;;;1.85;;
19848;SDS011;10085;51.120;6.956;2023-05-07T12:21:10;2.20;;;1.80;;
19848;SDS011;10085;51.120;6.956;2023-05-07T12:26:13;2.25;;;1.83;;
19848;SDS011;10085;51.120;6.956;2023-05-07T12:31:18;2.00;;;1.80;;
19848;SDS011;10085;51.120;6.956;2023-05-07T12:36:21;2.72;;;1.95;;
19848;SDS011;10085;51.120;6.956;2023-05-07T12:41:24;3.47;;;2.03;;
19848;SDS011;10085;51.120;6.956;2023-05-07T12:46:31;1.92;;;1.70;;
19848;SDS011;10085;51.120;6.956;2023-05-07T12:51:34;1.70;;;1.60;;
19848;SDS011;10085;51.120;6.956;2023-05-07T12:56:37;2.72;;;1.90;;
19848;SDS011;10085;51.120;6.956;2023-05-07T13:01:43;2.17;;;1.90;;
19848;SDS011;10085;51.120;6.956;2023-05-07T13:06:46;3.65;;;2.40;;
19848;SDS011;10085;51.120;6.956;2023-05-07T13:11:49;4.30;;;2.90;;
19848;SDS011;10085;51.120;6.956;2023-05-07T13:16:53;8.38;;;3.65;;
19848;SDS011;10085;51.120;6.956;2023-05-07T13:21:56;4.07;;;3.28;;
19848;SDS011;10085;51.120;6.956;2023-05-07T13:26:59;5.22;;;3.20;;
19848;SDS011;10085;51.120;6.956;2023-05-07T13:32:03;4.15;;;3.05;;
19848;SDS011;10085;51.120;6.956;2023-05-07T13:37:06;6.45;;;3.10;;
19848;SDS011;10085;51.120;6.956;2023-05-07T13:42:11;4.57;;;3.30;;
19848;SDS011;10085;51.120;6.956;2023-05-07T13:47:16;4.10;;;2.90;;
19848;SDS011;10085;51.120;6.956;2023-05-07T13:52:18;4.72;;;2.47;;
19848;SDS011;10085;51.120;6.956;2023-05-07T13:57:21;4.38;;;2.20;;
19848;SDS011;10085;51.120;6.956;2023-05-07T14:02:25;6.22;;;2.28;;
19848;SDS011;10085;51.120;6.956;2023-05-07T14:07:28;2.85;;;2.20;;
19848;SDS011;10085;51.120;6.956;2023-05-07T14:12:31;3.35;;;2.13;;
19848;SDS011;10085;51.120;6.956;2023-05-07T14:17:36;3.85;;;2.10;;
19848;SDS011;10085;51.120;6.956;2023-05-07T14:22:39;3.67;;;2.53;;
19848;SDS011;10085;51.120;6.956;2023-05-07T14:27:42;4.10;;;2.70;;
19848;SDS011;10085;51.120;6.956;2023-05-07T14:32:46;4.10;;;2.80;;
19848;SDS011;10085;51.120;6.956;2023-05-07T14:37:49;4.47;;;3.33;;
19848;SDS011;10085;51.120;6.956;2023-05-07T14:42:52;6.45;;;4.40;;
19848;SDS011;10085;51.120;6.956;2023-05-07T14:47:56;6.78;;;4.55;;
19848;SDS011;10085;51.120;6.956;2023-05-07T14:52:58;7.68;;;4.22;;
19848;SDS011;10085;51.120;6.956;2023-05-07T14:58:01;5.60;;;4.45;;
19848;SDS011;10085;51.120;6.956;2023-05-07T15:03:06;5.78;;;4.28;;
19848;SDS011;10085;51.120;6.956;2023-05-07T15:08:10;7.10;;;4.45;;
19848;SDS011;10085;51.120;6.956;2023-05-07T15:13:12;7.63;;;4.88;;
19848;SDS011;10085;51.120;6.956;2023-05-07T15:24:08;6.53;;;4.47;;
19848;SDS011;10085;51.120;6.956;2023-05-07T15:29:11;6.30;;;3.92;;
19848;SDS011;10085;51.120;6.956;2023-05-07T15:34:14;6.60;;;4.15;;
19848;SDS011;10085;51.120;6.956;2023-05-07T15:39:19;5.38;;;3.83;;
19848;SDS011;10085;51.120;6.956;2023-05-07T15:44:25;7.95;;;3.88;;
19848;SDS011;10085;51.120;6.956;2023-05-07T15:49:29;6.10;;;4.03;;
19848;SDS011;10085;51.120;6.956;2023-05-07T15:54:34;5.90;;;4.10;;
19848;SDS011;10085;51.120;6.956;2023-05-07T15:59:36;4.13;;;3.40;;
19848;SDS011;10085;51.120;6.956;2023-05-07T16:04:39;14.77;;;4.90;;
19848;SDS011;10085;51.120;6.956;2023-05-07T16:09:43;24.00;;;5.63;;
19848;SDS011;10085;51.120;6.956;2023-05-07T16:14:47;15.68;;;4.80;;
19848;SDS011;10085;51.120;6.956;2023-05-07T16:19:51;14.50;;;4.53;;
19848;SDS011;10085;51.120;6.956;2023-05-07T16:24:55;12.98;;;4.43;;
19848;SDS011;10085;51.120;6.956;2023-05-07T16:29:58;14.35;;;4.10;;
19848;SDS011;10085;51.120;6.956;2023-05-07T16:35:01;12.85;;;4.40;;
19848;SDS011;10085;51.120;6.956;2023-05-07T16:40:06;16.65;;;4.07;;
19848;SDS011;10085;51.120;6.956;2023-05-07T16:45:09;14.35;;;4.18;;
19848;SDS011;10085;51.120;6.956;2023-05-07T16:50:13;13.80;;;3.70;;
19848;SDS011;10085;51.120;6.956;2023-05-07T16:55:17;13.48;;;3.97;;
19848;SDS011;10085;51.120;6.956;2023-05-07T17:00:20;13.00;;;3.80;;
19848;SDS011;10085;51.120;6.956;2023-05-07T17:05:23;11.23;;;3.55;;
19848;SDS011;10085;51.120;6.956;2023-05-07T17:10:27;9.50;;;3.67;;
19848;SDS011;10085;51.120;6.956;2023-05-07T17:15:30;7.70;;;4.18;;
19848;SDS011;10085;51.120;6.956;2023-05-07T17:20:33;7.65;;;3.60;;
19848;SDS011;10085;51.120;6.956;2023-05-07T17:25:37;8.85;;;3.53;;
19848;SDS011;10085;51.120;6.956;2023-05-07T17:30:45;8.73;;;3.42;;
19848;SDS011;10085;51.120;6.956;2023-05-07T17:35:51;10.73;;;3.95;;
19848;SDS011;10085;51.120;6.956;2023-05-07T17:40:56;7.07;;;3.47;;
19848;SDS011;10085;51.120;6.956;2023-05-07T17:45:59;10.48;;;3.83;;
19848;SDS011;10085;51.120;6.956;2023-05-07T17:51:03;4.35;;;3.10;;
19848;SDS011;10085;51.120;6.956;2023-05-07T17:56:07;8.18;;;3.53;;
19848;SDS011;10085;51.120;6.956;2023-05-07T18:01:10;7.43;;;3.55;;
19848;SDS011;10085;51.120;6.956;2023-05-07T18:06:28;5.97;;;3.40;;
19848;SDS011;10085;51.120;6.956;2023-05-07T18:11:45;8.30;;;3.40;;
19848;SDS011;10085;51.120;6.956;2023-05-07T18:16:48;6.07;;;3.40;;
19848;SDS011;10085;51.120;6.956;2023-05-07T18:21:51;6.25;;;3.38;;
19848;SDS011;10085;51.120;6.956;2023-05-07T18:26:59;7.72;;;3.40;;
19848;SDS011;10085;51.120;6.956;2023-05-07T18:32:02;8.25;;;2.92;;
19848;SDS011;10085;51.120;6.956;2023-05-07T18:37:05;7.90;;;3.33;;
19848;SDS011;10085;51.120;6.956;2023-05-07T18:42:09;5.72;;;3.22;;
19848;SDS011;10085;51.120;6.956;2023-05-07T18:47:13;6.65;;;3.40;;
19848;SDS011;10085;51.120;6.956;2023-05-07T18:52:16;4.43;;;2.85;;
19848;SDS011;10085;51.120;6.956;2023-05-07T18:57:22;6.60;;;3.45;;
19848;SDS011;10085;51.120;6.956;2023-05-07T19:02:25;4.63;;;3.03;;
19848;SDS011;10085;51.120;6.956;2023-05-07T19:07:28;5.00;;;3.17;;
19848;SDS011;10085;51.120;6.956;2023-05-07T19:12:32;7.18;;;3.38;;
19848;SDS011;10085;51.120;6.956;2023-05-07T19:17:35;6.55;;;3.88;;
19848;SDS011;10085;51.120;6.956;2023-05-07T19:22:38;5.43;;;3.05;;
19848;SDS011;10085;51.120;6.956;2023-05-07T19:27:42;6.35;;;3.13;;
19848;SDS011;10085;51.120;6.956;2023-05-07T19:32:45;4.63;;;3.03;;
19848;SDS011;10085;51.120;6.956;2023-05-07T19:37:48;5.35;;;3.28;;
19848;SDS011;10085;51.120;6.956;2023-05-07T19:42:52;5.13;;;3.00;;
19848;SDS011;10085;51.120;6.956;2023-05-07T19:47:55;5.38;;;3.10;;
19848;SDS011;10085;51.120;6.956;2023-05-07T19:52:58;4.13;;;2.70;;
19848;SDS011;10085;51.120;6.956;2023-05-07T19:58:02;4.78;;;3.20;;
19848;SDS011;10085;51.120;6.956;2023-05-07T20:03:05;4.00;;;3.05;;
19848;SDS011;10085;51.120;6.956;2023-05-07T20:08:08;5.90;;;3.00;;
19848;SDS011;10085;51.120;6.956;2023-05-07T20:13:12;4.63;;;2.90;;
19848;SDS011;10085;51.120;6.956;2023-05-07T20:18:15;5.10;;;3.28;;
19848;SDS011;10085;51.120;6.956;2023-05-07T20:23:17;3.67;;;2.60;;
19848;SDS011;10085;51.120;6.956;2023-05-07T20:28:21;3.47;;;2.83;;
19848;SDS011;10085;51.120;6.956;2023-05-07T20:33:24;3.10;;;2.65;;
19848;SDS011;10085;51.120;6.956;2023-05-07T20:38:27;5.60;;;3.28;;
19848;SDS011;10085;51.120;6.956;2023-05-07T20:43:35;3.45;;;2.58;;
19848;SDS011;10085;51.120;6.956;2023-05-07T20:48:38;3.70;;;2.75;;
19848;SDS011;10085;51.120;6.956;2023-05-07T20:53:48;3.92;;;2.75;;
19848;SDS011;10085;51.120;6.956;2023-05-07T20:58:52;4.03;;;2.78;;
19848;SDS011;10085;51.120;6.956;2023-05-07T21:03:55;4.30;;;2.70;;
19848;SDS011;10085;51.120;6.956;2023-05-07T21:08:57;6.40;;;3.22;;
19848;SDS011;10085;51.120;6.956;2023-05-07T21:14:12;4.13;;;2.70;;
19848;SDS011;10085;51.120;6.956;2023-05-07T21:19:15;4.55;;;2.80;;
19848;SDS011;10085;51.120;6.956;2023-05-07T21:24:17;5.63;;;4.60;;
19848;SDS011;10085;51.120;6.956;2023-05-07T21:29:22;9.45;;;8.43;;
19848;SDS011;10085;51.120;6.956;2023-05-07T21:34:34;16.98;;;12.10;;
19848;SDS011;10085;51.120;6.956;2023-05-07T21:45:32;17.27;;;15.88;;
19848;SDS011;10085;51.120;6.956;2023-05-07T21:50:35;18.48;;;16.88;;
19848;SDS011;10085;51.120;6.956;2023-05-07T21:55:38;19.67;;;17.95;;
19848;SDS011;10085;51.120;6.956;2023-05-07T22:00:42;19.65;;;18.15;;
19848;SDS011;10085;51.120;6.956;2023-05-07T22:05:45;19.58;;;17.92;;
19848;SDS011;10085;51.120;6.956;2023-05-07T22:10:50;19.45;;;17.65;;
19848;SDS011;10085;51.120;6.956;2023-05-07T22:15:54;19.00;;;17.48;;
19848;SDS011;10085;51.120;6.956;2023-05-07T22:20:59;18.83;;;17.25;;
19848;SDS011;10085;51.120;6.956;2023-05-07T22:26:07;17.85;;;16.35;;
19848;SDS011;10085;51.120;6.956;2023-05-07T22:31:12;18.35;;;16.85;;
19848;SDS011;10085;51.120;6.956;2023-05-07T22:36:15;17.52;;;16.02;;
19848;SDS011;10085;51.120;6.956;2023-05-07T22:41:17;17.08;;;15.48;;
19848;SDS011;10085;51.120;6.956;2023-05-07T22:46:22;16.38;;;14.95;;
19848;SDS011;10085;51.120;6.956;2023-05-07T22:51:25;14.98;;;13.68;;
19848;SDS011;10085;51.120;6.956;2023-05-07T22:56:28;14.63;;;13.35;;
19848;SDS011;10085;51.120;6.956;2023-05-07T23:01:32;14.50;;;12.90;;
19848;SDS011;10085;51.120;6.956;2023-05-07T23:06:35;13.90;;;12.60;;
19848;SDS011;10085;51.120;6.956;2023-05-07T23:11:38;14.23;;;12.40;;
19848;SDS011;10085;51.120;6.956;2023-05-07T23:16:43;16.60;;;12.60;;
19848;SDS011;10085;51.120;6.956;2023-05-07T23:21:45;14.02;;;12.65;;
19848;SDS011;10085;51.120;6.956;2023-05-07T23:26:48;12.90;;;11.55;;
19848;SDS011;10085;51.120;6.956;2023-05-07T23:31:52;13.73;;;12.07;;
19848;SDS011;10085;51.120;6.956;2023-05-07T23:36:55;12.65;;;11.27;;
19848;SDS011;10085;51.120;6.956;2023-05-07T23:41:57;16.60;;;11.52;;
19848;SDS011;10085;51.120;6.956;2023-05-07T23:47:02;12.85;;;11.25;;
19848;SDS011;10085;51.120;6.956;2023-05-07T23:52:04;15.70;;;11.30;;
19848;SDS011;10085;51.120;6.956;2023-05-07T23:57:07;15.63;;;11.73;;
